Terminal Aerodrome Forecast
Issued by NWS

Home | Current Version | Previous Version | Text Only | Print | Product List | Glossary On
Versions: 1 2 3 4 5 6 7 8 9 10 11 12 13 14 15 16 17 18 19 20 21 22 23 24 25 26 27 28 29 30 31 32 33 34
253
FTUS45 KBOU 101128
TAFBJC
TAF
KBJC 101128Z 1012/1112 28018G30KT P6SM FEW200
     FM101900 30013G22KT P6SM FEW140 BKN200
     FM110200 26009KT P6SM SCT220
     FM111000 26012G20KT P6SM SCT220=

USA.gov is the U.S. government's official web portal to all federal, state and local government web resources and services.